Terminal Aerodrome Forecast
Issued by NWS

Home | Current Version | Previous Version | Text Only | Print | Product List | Glossary On
Versions: 1 2 3 4 5 6 7 8 9 10 11 12 13 14 15 16 17 18
000
FTUS43 KICT 230520
TAFRSL
TAF
KRSL 230520Z 2306/2406 13011KT 5SM -DZ BR BKN005
      TEMPO 2306/2310 2SM -DZ BR BKN003
     FM231000 14009KT 2SM -DZ BR SCT001 BKN003
     FM231600 14015KT 5SM -SHRA VCTS FEW003 SCT008 OVC010CB
     FM232200 14015KT P6SM BKN015
     FM240100 14012KT 4SM BR SCT004 BKN007=

USA.gov is the U.S. government's official web portal to all federal, state and local government web resources and services.